Time;durP1;ratioP1;P1;durP2;ratioP2;P2;SDS_P1;SDS_P2;PMS_P1;PMS_P2;Temp;Humidity;BMP_temperature;BMP_pressure;BME280_temperature;BME280_humidity;BME280_pressure;Samples;Min_cycle;Max_cycle;Signal;HPM_P1;HPM_P2
2022/11/06 00:01:11;;;;;;;4.43;3.15;;;;;;;9.99;69.26;100841.00;4992489;28;20496;-79
2022/11/06 00:03:39;;;;;;;3.75;2.97;;;;;;;9.98;69.02;100837.47;4992515;28;20473;-80
2022/11/06 00:08:59;;;;;;;5.07;3.45;;;;;;;10.09;69.41;100849.25;4979057;28;20405;-79
2022/11/06 00:11:30;;;;;;;5.88;3.33;;;;;;;10.08;69.98;100853.09;4992503;28;20047;-80
2022/11/06 00:13:59;;;;;;;4.00;3.50;;;;;;;9.92;70.29;100858.50;4979267;28;20512;-81
2022/11/06 00:16:28;;;;;;;7.30;3.45;;;;;;;9.80;70.94;100852.44;4992396;28;20534;-80
2022/11/06 00:18:58;;;;;;;5.45;3.35;;;;;;;9.77;71.12;100863.91;4991831;28;20208;-80
2022/11/06 00:21:28;;;;;;;3.97;2.95;;;;;;;9.80;71.43;100857.91;4992447;28;20060;-81
2022/11/06 00:23:58;;;;;;;5.28;3.58;;;;;;;9.72;72.84;100850.25;4992718;28;20054;-80
2022/11/06 00:26:27;;;;;;;6.43;3.55;;;;;;;9.63;73.62;100842.53;4992699;28;20061;-80
2022/11/06 00:28:56;;;;;;;5.55;4.05;;;;;;;9.62;72.95;100848.25;4991341;28;20053;-80
2022/11/06 00:31:27;;;;;;;8.50;3.80;;;;;;;9.56;73.40;100852.91;4992471;28;20069;-79
2022/11/06 00:33:56;;;;;;;4.88;3.47;;;;;;;9.57;72.01;100859.19;4991769;28;20050;-80
2022/11/06 00:36:25;;;;;;;4.53;3.63;;;;;;;9.85;71.60;100863.41;4991877;28;20058;-81
2022/11/06 00:38:54;;;;;;;4.60;2.85;;;;;;;9.92;71.67;100863.16;4991217;28;20042;-80
2022/11/06 00:41:23;;;;;;;3.35;2.67;;;;;;;9.84;70.32;100880.91;4986827;28;20050;-80
2022/11/06 00:43:54;;;;;;;3.92;3.00;;;;;;;9.77;72.15;100875.66;4992248;28;20409;-80
2022/11/06 00:46:24;;;;;;;4.10;2.95;;;;;;;9.75;71.40;100879.75;4992144;28;20057;-81
2022/11/06 00:48:53;;;;;;;5.45;3.10;;;;;;;9.79;70.62;100884.41;4991599;28;20045;-80
2022/11/06 00:51:34;;;;;;;3.95;2.80;;;;;;;9.76;72.06;100895.06;4992191;28;20046;-80
2022/11/06 00:54:08;;;;;;;4.50;3.00;;;;;;;9.84;69.50;100899.19;4991321;28;20057;-80
2022/11/06 00:56:36;;;;;;;4.68;2.80;;;;;;;9.90;68.68;100903.59;4990878;28;20043;-80
2022/11/06 00:59:06;;;;;;;4.72;2.50;;;;;;;9.99;67.59;100910.19;4992032;28;20046;-80
2022/11/06 01:01:36;;;;;;;4.63;3.35;;;;;;;9.94;69.85;100908.25;4990137;28;20054;-80
2022/11/06 01:04:14;;;;;;;7.35;3.58;;;;;;;9.67;71.44;100909.25;4990850;28;20051;-81
2022/11/06 01:06:44;;;;;;;6.45;3.75;;;;;;;9.53;71.67;100908.88;4991643;28;20061;-80
2022/11/06 01:09:15;;;;;;;4.55;3.20;;;;;;;9.33;72.99;100911.50;4992199;28;20053;-80
2022/11/06 01:11:46;;;;;;;8.30;3.92;;;;;;;9.16;73.62;100914.38;4988876;28;20062;-80
2022/11/06 01:14:34;;;;;;;8.93;4.20;;;;;;;9.18;74.10;100912.22;4995371;28;20046;-79
2022/11/06 01:17:05;;;;;;;7.15;4.28;;;;;;;9.28;74.09;100915.00;4995735;28;20053;-80
2022/11/06 01:19:33;;;;;;;4.68;3.88;;;;;;;9.10;74.53;100921.72;4994312;28;20057;-79
2022/11/06 01:22:03;;;;;;;6.25;3.83;;;;;;;9.04;74.99;100923.56;4993928;28;20054;-80
2022/11/06 01:24:31;;;;;;;7.35;4.10;;;;;;;9.00;75.42;100914.28;4995423;28;20050;-79
2022/11/06 01:26:59;;;;;;;4.60;3.30;;;;;;;8.93;74.86;100903.56;4995890;28;20370;-79
2022/11/06 01:29:47;;;;;;;6.07;3.90;;;;;;;8.89;75.63;100913.34;4992740;28;20058;-79
2022/11/06 01:32:15;;;;;;;7.57;4.10;;;;;;;8.90;76.34;100900.53;4995439;28;20042;-80
2022/11/06 01:34:42;;;;;;;7.10;3.67;;;;;;;8.91;76.35;100897.56;4995405;28;20053;-79
2022/11/06 01:37:10;;;;;;;7.80;3.67;;;;;;;8.92;73.68;100903.84;4994741;28;20053;-80
2022/11/06 01:39:41;;;;;;;3.85;2.92;;;;;;;9.10;72.89;100908.88;4994974;28;20061;-79
2022/11/06 01:42:13;;;;;;;4.50;2.80;;;;;;;9.21;71.72;100898.88;4994838;28;20054;-79
2022/11/06 01:44:44;;;;;;;3.35;2.33;;;;;;;9.27;70.45;100894.25;4995297;28;20042;-81
2022/11/06 01:47:23;;;;;;;4.05;2.40;;;;;;;9.44;70.88;100890.53;4994382;28;20054;-81
2022/11/06 01:50:00;;;;;;;6.50;3.03;;;;;;;9.54;70.42;100891.41;4983706;28;20062;-80
2022/11/06 01:52:31;;;;;;;4.05;2.50;;;;;;;9.56;71.02;100880.22;4994712;28;20065;-81
2022/11/06 01:55:10;;;;;;;5.88;2.83;;;;;;;9.49;69.01;100871.44;4993996;28;20050;-81
2022/11/06 01:57:38;;;;;;;3.60;2.28;;;;;;;9.47;68.31;100876.34;4992241;28;20046;-81
2022/11/06 02:00:07;;;;;;;2.53;1.75;;;;;;;9.52;67.42;100873.63;4994707;28;20065;-80
2022/11/06 02:02:36;;;;;;;3.10;2.08;;;;;;;9.51;66.92;100872.00;4995181;28;20058;-80
2022/11/06 02:05:05;;;;;;;2.25;2.03;;;;;;;9.69;66.71;100862.53;4994009;28;20066;-81
2022/11/06 02:07:33;;;;;;;5.00;1.98;;;;;;;9.83;65.70;100879.25;4994082;28;20045;-81
2022/11/06 02:10:02;;;;;;;5.03;2.10;;;;;;;9.83;66.88;100873.78;4994915;28;20050;-81
2022/11/06 02:13:01;;;;;;;3.67;2.30;;;;;;;9.79;65.90;100873.47;4994185;28;20058;-81
2022/11/06 02:15:50;;;;;;;2.20;1.85;;;;;;;9.83;65.00;100871.06;4993845;28;20034;-80
2022/11/06 02:18:47;;;;;;;5.15;2.13;;;;;;;9.70;65.05;100869.63;4994253;28;20051;-80
2022/11/06 02:21:37;;;;;;;4.53;2.03;;;;;;;9.64;66.19;100873.44;4985088;28;20042;-80
2022/11/06 02:24:26;;;;;;;2.70;1.55;;;;;;;9.74;65.12;100868.00;4994052;28;20039;-80
2022/11/06 02:27:11;;;;;;;4.25;2.22;;;;;;;9.68;66.62;100869.09;4992832;28;20057;-80
2022/11/06 02:29:39;;;;;;;3.85;2.30;;;;;;;9.66;65.71;100869.34;4992851;28;20049;-80
2022/11/06 02:32:10;;;;;;;3.05;1.75;;;;;;;9.59;66.58;100878.88;4994315;28;20053;-80
2022/11/06 02:34:41;;;;;;;2.92;1.88;;;;;;;9.76;65.88;100895.88;4994139;28;20382;-80
2022/11/06 02:37:14;;;;;;;4.03;1.77;;;;;;;9.72;66.52;100891.22;4993332;28;20061;-80
2022/11/06 02:39:46;;;;;;;4.13;1.85;;;;;;;9.78;67.05;100901.09;4994599;28;20058;-80
2022/11/06 02:42:17;;;;;;;3.92;2.10;;;;;;;9.71;67.49;100893.13;4990138;28;20058;-80
2022/11/06 02:44:49;;;;;;;3.88;2.42;;;;;;;9.35;69.58;100891.03;4993881;28;20054;-80
2022/11/06 02:47:19;;;;;;;3.20;2.13;;;;;;;9.23;70.58;100898.59;4991207;28;20057;-79
2022/11/06 02:50:10;;;;;;;5.38;2.50;;;;;;;9.13;72.35;100899.34;4994223;28;20058;-80
2022/11/06 02:52:46;;;;;;;4.82;2.45;;;;;;;8.99;73.44;100896.22;4993993;28;20054;-79
2022/11/06 02:55:20;;;;;;;3.35;2.65;;;;;;;8.91;73.98;100897.56;4993347;28;20122;-80
2022/11/06 02:57:53;;;;;;;3.90;2.53;;;;;;;8.90;72.95;100897.81;4992434;28;20073;-80
2022/11/06 03:00:23;;;;;;;4.28;2.72;;;;;;;8.96;73.12;100902.22;4980490;28;20298;-80
2022/11/06 03:03:00;;;;;;;2.53;2.33;;;;;;;8.91;73.15;100899.47;4994009;28;20061;-80
2022/11/06 03:05:37;;;;;;;3.67;2.53;;;;;;;8.96;72.18;100894.88;4992422;28;20050;-80
2022/11/06 03:08:16;;;;;;;3.28;2.55;;;;;;;8.91;73.45;100896.72;4991894;28;20057;-79
2022/11/06 03:11:10;;;;;;;3.40;2.70;;;;;;;8.83;73.64;100889.84;4981303;28;20054;-80
2022/11/06 03:13:56;;;;;;;2.85;2.33;;;;;;;8.85;73.51;100888.50;4992152;28;20047;-80
2022/11/06 03:16:48;;;;;;;3.13;2.30;;;;;;;8.80;72.75;100896.63;4991168;28;20057;-79
2022/11/06 03:19:49;;;;;;;6.20;2.60;;;;;;;8.65;72.30;100889.16;4991221;28;20050;-80
2022/11/06 03:22:29;;;;;;;4.38;2.65;;;;;;;8.68;73.87;100899.56;4993326;28;20042;-80
2022/11/06 03:25:16;;;;;;;3.55;2.67;;;;;;;8.63;73.82;100885.03;4993140;28;20046;-80
2022/11/06 03:27:49;;;;;;;3.35;2.42;;;;;;;8.55;74.39;100900.78;4991894;28;20058;-80
2022/11/06 03:30:17;;;;;;;3.67;2.25;;;;;;;8.46;75.24;100897.69;4993341;28;20062;-80
2022/11/06 03:32:51;;;;;;;3.72;2.40;;;;;;;8.49;75.67;100909.16;4993122;28;20102;-81
2022/11/06 03:35:18;;;;;;;2.90;2.60;;;;;;;8.45;74.87;100911.56;4992484;28;20038;-80
2022/11/06 03:38:00;;;;;;;4.25;2.97;;;;;;;8.43;76.03;100908.28;4993668;28;20050;-80
2022/11/06 03:40:34;;;;;;;3.95;2.55;;;;;;;8.48;74.85;100916.50;4992927;28;20050;-79
2022/11/06 03:43:05;;;;;;;3.13;2.17;;;;;;;8.52;74.52;100922.31;4991507;28;20065;-79
2022/11/06 03:45:35;;;;;;;4.30;2.63;;;;;;;8.47;75.27;100921.13;4985167;28;20401;-79
2022/11/06 03:48:25;;;;;;;3.83;2.67;;;;;;;8.53;75.42;100926.69;4993404;28;20069;-80
2022/11/06 03:51:09;;;;;;;3.00;2.17;;;;;;;8.46;76.81;100930.41;4993158;28;20050;-80
2022/11/06 03:53:44;;;;;;;3.33;2.72;;;;;;;8.42;77.32;100928.47;4982144;28;20050;-79
2022/11/06 03:56:17;;;;;;;5.10;2.28;;;;;;;8.48;76.46;100927.44;4991478;28;20054;-80
2022/11/06 03:58:48;;;;;;;5.80;2.90;;;;;;;8.42;76.84;100923.00;4980228;28;20489;-80
2022/11/06 04:01:22;;;;;;;3.92;2.38;;;;;;;8.46;78.21;100940.50;4984684;28;20050;-79
2022/11/06 04:03:58;;;;;;;3.92;2.65;;;;;;;8.43;76.33;100941.00;4988377;28;20081;-79
2022/11/06 04:06:36;;;;;;;4.13;2.90;;;;;;;8.44;76.59;100939.94;4992397;28;20050;-79
2022/11/06 04:14:49;;;;;;;2.45;2.13;;;;;;;8.45;75.93;100944.28;4992420;28;20069;-79
2022/11/06 04:17:21;;;;;;;2.53;2.10;;;;;;;8.41;74.31;100943.97;4992573;28;20476;-80
2022/11/06 04:19:52;;;;;;;4.25;2.63;;;;;;;8.34;75.92;100941.47;4992551;28;20050;-79
2022/11/06 04:22:49;;;;;;;2.72;2.17;;;;;;;8.28;76.54;100938.94;4982882;28;20413;-79
2022/11/06 04:28:38;;;;;;;4.60;2.35;;;;;;;8.29;75.92;100949.59;4992651;28;20046;-79
2022/11/06 04:31:30;;;;;;;3.88;2.58;;;;;;;8.30;74.82;100958.59;4984390;28;20051;-79
2022/11/06 04:34:20;;;;;;;2.35;1.92;;;;;;;8.51;73.57;100965.09;4991994;28;20501;-79
2022/11/06 04:36:59;;;;;;;2.45;2.00;;;;;;;8.49;74.00;100961.81;4991128;28;20057;-79
2022/11/06 04:39:36;;;;;;;2.13;1.75;;;;;;;8.41;74.69;100965.81;4992189;28;20039;-79
2022/11/06 04:42:28;;;;;;;2.55;1.95;;;;;;;8.45;73.57;100969.69;4991142;28;20050;-79
2022/11/06 04:45:02;;;;;;;2.17;1.65;;;;;;;8.34;75.87;100960.56;4991958;28;20057;-79
2022/11/06 04:47:31;;;;;;;3.10;2.00;;;;;;;8.37;75.13;100964.69;4994037;28;20053;-79
2022/11/06 04:50:01;;;;;;;2.47;1.98;;;;;;;8.38;74.81;100965.50;4995086;28;20046;-80
2022/11/06 04:52:29;;;;;;;2.35;1.70;;;;;;;8.38;74.68;100970.94;4995818;28;20395;-79
2022/11/06 04:54:58;;;;;;;2.53;1.65;;;;;;;8.30;73.71;100962.16;4996310;28;20046;-79
2022/11/06 04:57:26;;;;;;;1.23;1.13;;;;;;;8.43;72.70;100966.38;4995218;28;20050;-79
2022/11/06 04:59:55;;;;;;;1.55;1.30;;;;;;;8.54;73.91;100963.78;4996035;28;20050;-79
2022/11/06 05:02:23;;;;;;;2.28;1.58;;;;;;;8.69;72.45;100971.31;4991961;28;20054;-79
2022/11/06 05:04:51;;;;;;;4.20;1.90;;;;;;;8.52;72.72;100966.78;4995786;28;20061;-80
2022/11/06 05:07:19;;;;;;;1.92;1.75;;;;;;;8.36;73.36;100960.28;4995780;28;20061;-79
2022/11/06 05:09:47;;;;;;;3.53;2.10;;;;;;;8.29;74.71;100971.41;4995796;28;20489;-79
2022/11/06 05:12:14;;;;;;;2.17;1.90;;;;;;;8.29;75.22;100967.84;4992984;28;20050;-79
2022/11/06 05:14:42;;;;;;;3.08;1.73;;;;;;;8.19;76.51;100965.84;4996071;28;20057;-79
2022/11/06 05:17:10;;;;;;;3.55;2.28;;;;;;;8.13;76.72;100958.66;4995717;28;20064;-79
2022/11/06 05:19:38;;;;;;;2.38;2.00;;;;;;;8.05;76.66;100958.03;4994935;28;20178;-79
2022/11/06 05:24:52;;;;;;;1.83;1.48;;;;;;;7.98;76.74;100954.69;4995431;28;20042;-79
2022/11/06 05:27:23;;;;;;;4.03;1.83;;;;;;;7.99;76.76;100950.03;4994339;28;20058;-79
2022/11/06 05:29:51;;;;;;;3.05;1.80;;;;;;;8.00;77.64;100952.53;4995755;28;20489;-79
2022/11/06 05:32:18;;;;;;;4.03;1.70;;;;;;;7.96;76.94;100962.28;4993754;28;20054;-79
2022/11/06 05:34:46;;;;;;;3.85;1.88;;;;;;;7.88;75.62;100960.81;4995463;28;20046;-79
2022/11/06 05:37:14;;;;;;;1.83;1.38;;;;;;;8.10;75.17;100961.88;4995208;28;20065;-79
2022/11/06 05:39:42;;;;;;;2.97;1.77;;;;;;;8.21;74.87;100966.38;4994938;28;20062;-79
2022/11/06 05:42:09;;;;;;;3.45;2.00;;;;;;;8.24;74.11;100971.34;4994408;28;20050;-79
2022/11/06 05:44:37;;;;;;;4.70;2.38;;;;;;;8.30;74.15;100973.06;4995000;28;20047;-79
2022/11/06 05:47:05;;;;;;;2.28;1.73;;;;;;;8.29;75.79;100971.41;4994970;28;20057;-79
2022/11/06 05:49:33;;;;;;;1.85;1.58;;;;;;;8.18;77.81;100977.81;4994355;28;20042;-79
2022/11/06 05:52:01;;;;;;;3.00;1.40;;;;;;;8.12;75.92;100973.38;4994373;28;20061;-79
2022/11/06 05:54:29;;;;;;;3.55;1.67;;;;;;;8.09;76.25;100977.44;4995014;28;20065;-79
2022/11/06 05:56:57;;;;;;;1.70;1.60;;;;;;;8.04;76.45;100988.28;4994941;28;20042;-79
2022/11/06 05:59:24;;;;;;;1.75;1.30;;;;;;;7.89;75.89;100991.63;4994118;28;20058;-79
2022/11/06 06:01:52;;;;;;;3.80;1.75;;;;;;;7.81;76.65;100990.13;4993245;28;20058;-79
2022/11/06 06:04:20;;;;;;;4.95;2.35;;;;;;;7.77;77.04;100986.28;4994367;28;20062;-80
2022/11/06 06:06:48;;;;;;;5.07;2.22;;;;;;;7.80;76.94;100999.41;4994469;28;20054;-83
2022/11/06 06:09:16;;;;;;;4.75;1.80;;;;;;;7.93;78.23;101000.94;4993541;28;20042;-80
2022/11/06 06:11:45;;;;;;;2.47;2.15;;;;;;;7.96;77.34;101008.59;4992565;28;20061;-81
2022/11/06 06:14:13;;;;;;;5.53;2.53;;;;;;;7.96;76.86;101005.06;4993639;28;20042;-80
2022/11/06 06:16:40;;;;;;;4.15;2.08;;;;;;;7.94;77.94;101008.03;4984336;28;20047;-79
2022/11/06 06:19:08;;;;;;;2.45;2.17;;;;;;;7.90;77.80;101009.63;4996996;28;20402;-81
2022/11/06 06:21:36;;;;;;;4.38;2.03;;;;;;;7.93;75.59;101028.19;4993869;28;20050;-81
2022/11/06 06:24:05;;;;;;;3.20;1.92;;;;;;;7.90;76.39;101031.41;4994759;28;20493;-81
2022/11/06 06:26:33;;;;;;;3.90;2.38;;;;;;;7.90;75.54;101031.41;4994462;28;20045;-81
2022/11/06 06:29:02;;;;;;;4.35;2.08;;;;;;;7.96;74.64;101032.31;4993800;28;20058;-81
2022/11/06 06:31:29;;;;;;;4.38;2.28;;;;;;;8.00;74.31;101026.13;4993191;28;20042;-81
2022/11/06 06:33:57;;;;;;;4.55;2.17;;;;;;;8.09;74.37;101033.84;4993897;28;20054;-81
2022/11/06 06:36:25;;;;;;;3.10;2.05;;;;;;;8.25;74.13;101038.44;4994108;28;20042;-80
2022/11/06 06:38:54;;;;;;;2.40;1.90;;;;;;;8.37;73.79;101049.22;4993985;28;20077;-81
2022/11/06 06:41:22;;;;;;;1.90;1.67;;;;;;;8.45;72.69;101051.50;4991714;28;20069;-81
2022/11/06 06:43:52;;;;;;;4.15;1.73;;;;;;;8.67;71.73;101055.31;4991341;28;20509;-81
2022/11/06 06:46:20;;;;;;;3.15;2.00;;;;;;;9.02;72.67;101073.19;4991083;28;20047;-81
2022/11/06 06:48:47;;;;;;;5.50;2.17;;;;;;;9.22;71.00;101077.19;4993676;28;20053;-81
2022/11/06 06:51:15;;;;;;;2.30;1.40;;;;;;;9.42;70.03;101082.00;4992683;28;20608;-81
2022/11/06 06:53:50;;;;;;;2.95;1.70;;;;;;;9.62;66.62;101075.91;4993496;28;20038;-81
2022/11/06 06:56:18;;;;;;;2.60;1.88;;;;;;;9.87;67.46;101073.63;4993313;28;20050;-81
2022/11/06 06:58:46;;;;;;;2.50;1.55;;;;;;;10.19;67.45;101078.19;4993585;28;20058;-81
2022/11/06 07:01:14;;;;;;;1.77;1.40;;;;;;;10.03;65.48;101080.00;4984416;28;20363;-81
2022/11/06 07:03:42;;;;;;;1.50;1.38;;;;;;;10.14;66.38;101087.19;4992924;28;20046;-81
2022/11/06 07:06:13;;;;;;;1.73;1.50;;;;;;;10.25;66.30;101071.66;4993201;28;20054;-81
2022/11/06 07:08:41;;;;;;;2.63;1.27;;;;;;;10.28;63.26;101087.56;4993329;28;20058;-81
2022/11/06 07:11:09;;;;;;;1.88;1.60;;;;;;;10.43;63.15;101086.84;4990480;28;20050;-81
2022/11/06 07:13:37;;;;;;;3.85;1.63;;;;;;;10.54;62.97;101101.38;4984715;28;20050;-85
2022/11/06 07:16:07;;;;;;;3.90;1.73;;;;;;;10.66;62.58;101098.41;4990868;28;20056;-83
2022/11/06 07:18:39;;;;;;;1.42;0.98;;;;;;;10.72;61.99;101093.78;4992647;28;20050;-82
2022/11/06 07:21:10;;;;;;;1.90;1.25;;;;;;;10.93;61.62;101086.47;4993149;28;20059;-83
2022/11/06 07:23:38;;;;;;;1.25;1.15;;;;;;;11.10;60.27;101101.84;4982043;28;20055;-83
2022/11/06 07:26:06;;;;;;;1.58;0.90;;;;;;;11.22;59.68;101088.72;4992176;28;20042;-83
2022/11/06 07:28:34;;;;;;;3.42;1.40;;;;;;;11.51;59.96;101096.41;4992098;28;20122;-85
2022/11/06 07:31:04;;;;;;;2.97;1.45;;;;;;;11.50;58.96;101100.25;4992844;28;20057;-85
2022/11/06 07:33:33;;;;;;;1.85;1.38;;;;;;;11.48;58.60;101090.66;4993184;28;20042;-85
2022/11/06 07:36:08;;;;;;;1.90;1.10;;;;;;;11.66;59.22;101105.72;4992296;28;20054;-86
2022/11/06 07:38:45;;;;;;;2.75;1.50;;;;;;;11.88;57.84;101104.63;4988839;28;20054;-82
2022/11/06 07:41:23;;;;;;;2.90;2.00;;;;;;;12.12;57.46;101098.59;4985768;28;20061;-76
2022/11/06 07:43:56;;;;;;;2.60;1.20;;;;;;;12.09;55.34;101103.50;4989300;28;20405;-81
2022/11/06 07:46:24;;;;;;;3.22;1.30;;;;;;;12.32;56.91;101086.72;4992495;28;20397;-72
2022/11/06 07:48:53;;;;;;;2.65;1.48;;;;;;;12.29;55.76;101088.13;4992667;28;20101;-70
2022/11/06 07:51:21;;;;;;;0.85;0.85;;;;;;;12.67;54.20;101104.19;4991286;28;20042;-70
2022/11/06 07:53:49;;;;;;;2.35;1.70;;;;;;;13.00;54.02;101092.75;4986938;28;20042;-70
2022/11/06 07:56:17;;;;;;;1.88;1.50;;;;;;;13.08;53.09;101105.88;4983313;28;20054;-70
2022/11/06 07:58:45;;;;;;;2.08;1.58;;;;;;;13.31;53.02;101093.34;4991824;28;20069;-69
2022/11/06 08:01:17;;;;;;;2.08;1.40;;;;;;;13.34;56.42;101108.44;4991224;28;20409;-69
2022/11/06 08:03:45;;;;;;;1.85;1.40;;;;;;;13.38;54.42;101104.03;4973375;28;20050;-70
2022/11/06 08:06:13;;;;;;;4.30;2.08;;;;;;;13.55;54.72;101103.66;4979870;28;20038;-69
2022/11/06 08:08:42;;;;;;;1.40;1.30;;;;;;;13.65;53.91;101110.19;4948338;28;20062;-69
2022/11/06 08:11:11;;;;;;;3.28;1.70;;;;;;;13.61;54.79;101109.94;4949109;28;20054;-69
2022/11/06 08:13:39;;;;;;;2.28;1.50;;;;;;;13.72;53.66;101109.88;4979159;28;20077;-69
2022/11/06 08:16:09;;;;;;;1.95;1.40;;;;;;;13.72;53.82;101098.88;4974251;28;20057;-69
2022/11/06 08:18:38;;;;;;;1.98;1.45;;;;;;;13.77;53.11;101107.03;5002925;28;20054;-69
2022/11/06 08:21:06;;;;;;;2.35;1.33;;;;;;;13.76;53.77;101106.25;4990913;28;20053;-69
2022/11/06 08:23:34;;;;;;;2.75;1.25;;;;;;;13.75;53.34;101101.84;4983891;28;20046;-69
2022/11/06 08:26:04;;;;;;;2.25;1.58;;;;;;;13.74;54.06;101102.13;4992455;28;20408;-69
2022/11/06 08:28:33;;;;;;;3.25;1.63;;;;;;;13.74;53.99;101096.63;4992717;28;20043;-69
2022/11/06 08:31:08;;;;;;;2.97;1.67;;;;;;;13.93;54.50;101105.00;4985623;28;20050;-69
2022/11/06 08:33:37;;;;;;;2.80;1.58;;;;;;;14.10;54.47;101107.28;4989354;28;20054;-69
2022/11/06 08:36:07;;;;;;;4.05;1.77;;;;;;;14.05;53.58;101101.84;4991173;28;20065;-69
2022/11/06 08:38:35;;;;;;;1.92;1.52;;;;;;;14.11;54.29;101100.69;4990632;28;20050;-69
2022/11/06 08:41:05;;;;;;;3.40;1.73;;;;;;;14.27;53.75;101092.25;4990332;28;20054;-70
2022/11/06 08:43:35;;;;;;;2.50;1.58;;;;;;;14.08;53.60;101096.56;4979544;28;20516;-70
2022/11/06 08:46:09;;;;;;;2.25;1.67;;;;;;;14.13;54.37;101087.44;4980876;28;20054;-70
2022/11/06 08:48:37;;;;;;;3.80;1.85;;;;;;;14.41;53.22;101093.19;4991278;28;20046;-69
2022/11/06 08:51:05;;;;;;;3.85;1.95;;;;;;;14.47;52.12;101085.69;4988552;28;20039;-70
2022/11/06 08:53:33;;;;;;;1.15;1.05;;;;;;;14.72;52.82;101090.03;4992571;28;20047;-70
2022/11/06 08:56:03;;;;;;;1.25;1.15;;;;;;;14.72;52.31;101081.78;4991399;28;20050;-70
2022/11/06 08:58:32;;;;;;;1.23;1.08;;;;;;;14.81;52.25;101094.94;4991107;28;20042;-69
2022/11/06 09:01:00;;;;;;;1.85;1.58;;;;;;;14.77;52.07;101090.00;4990606;28;20061;-68
2022/11/06 09:03:29;;;;;;;3.28;1.73;;;;;;;14.77;50.36;101075.44;4987226;28;20051;-69
2022/11/06 09:05:59;;;;;;;2.05;1.50;;;;;;;14.97;51.34;101081.78;5002329;28;20062;-69
2022/11/06 09:08:27;;;;;;;1.38;1.20;;;;;;;15.04;50.70;101083.03;4990117;28;20053;-68
2022/11/06 09:10:55;;;;;;;3.17;1.73;;;;;;;15.13;50.70;101083.19;4987731;28;20493;-69
2022/11/06 09:13:26;;;;;;;4.82;1.70;;;;;;;15.15;49.46;101075.44;4965042;28;20054;-69
2022/11/06 09:15:54;;;;;;;4.50;2.22;;;;;;;15.24;49.62;101078.34;4985390;28;20050;-69
2022/11/06 09:18:25;;;;;;;2.60;1.50;;;;;;;15.36;46.63;101086.16;4989694;28;20042;-68
2022/11/06 09:20:54;;;;;;;2.95;1.50;;;;;;;15.38;49.13;101085.84;4989613;28;20512;-70
2022/11/06 09:23:23;;;;;;;2.25;1.60;;;;;;;15.37;48.86;101084.19;4989725;28;20042;-68
2022/11/06 09:25:52;;;;;;;3.45;2.00;;;;;;;15.50;46.57;101090.91;4985274;28;20397;-68
2022/11/06 09:28:20;;;;;;;2.85;1.70;;;;;;;15.65;46.40;101087.88;4989435;28;20042;-69
2022/11/06 09:30:53;;;;;;;3.08;1.63;;;;;;;15.63;46.92;101092.06;4988111;28;20592;-69
2022/11/06 09:33:21;;;;;;;3.05;1.63;;;;;;;15.79;47.02;101096.19;4987405;28;20520;-68
2022/11/06 09:35:50;;;;;;;3.65;1.83;;;;;;;15.86;47.22;101090.28;4991685;28;20485;-69
2022/11/06 09:38:18;;;;;;;1.85;1.30;;;;;;;15.91;46.12;101092.13;4992553;28;20378;-69
2022/11/06 09:40:51;;;;;;;2.30;1.13;;;;;;;15.95;43.47;101093.19;4992621;28;20049;-69
2022/11/06 09:43:22;;;;;;;4.20;2.05;;;;;;;16.07;41.45;101084.41;4995164;28;20057;-69
2022/11/06 09:46:44;;;;;;;2.83;1.52;;;;;;;16.33;42.09;101092.22;4979385;28;20050;-69
2022/11/06 09:49:47;;;;;;;4.15;2.00;;;;;;;16.30;42.97;101082.59;4990971;28;20038;-69
2022/11/06 09:52:31;;;;;;;5.18;2.10;;;;;;;16.32;41.51;101091.38;4989224;28;20051;-69
2022/11/06 09:55:05;;;;;;;;;;;;;;;16.31;42.15;101086.16;4992903;28;20050;-69
2022/11/06 09:57:41;;;;;;;4.40;1.83;;;;;;;16.39;42.35;101083.50;4993711;28;19922;-69
2022/11/06 10:00:14;;;;;;;5.32;1.90;;;;;;;16.58;41.38;101076.25;4982021;28;20039;-69
2022/11/06 10:02:51;;;;;;;3.97;1.85;;;;;;;16.48;42.92;101082.78;4993029;28;20058;-70
2022/11/06 10:05:32;;;;;;;4.15;2.15;;;;;;;16.59;42.53;101073.16;4991512;28;20054;-70
2022/11/06 10:08:06;;;;;;;3.28;1.88;;;;;;;16.74;40.49;101076.72;4993861;28;20042;-70
2022/11/06 10:10:50;;;;;;;3.50;1.67;;;;;;;16.69;42.27;101077.66;4993305;28;20042;-70
2022/11/06 10:13:52;;;;;;;3.08;1.85;;;;;;;16.49;41.70;101073.38;4993847;28;20397;-70
2022/11/06 10:16:52;;;;;;;6.75;1.42;;;;;;;16.57;41.16;101069.09;4994183;28;20057;-69
2022/11/06 10:19:53;;;;;;;3.58;2.08;;;;;;;16.63;40.36;101068.66;4992379;28;20042;-70
2022/11/06 10:22:40;;;;;;;2.90;1.50;;;;;;;16.77;40.90;101073.34;4992961;28;20042;-73
2022/11/06 10:25:38;;;;;;;3.10;1.42;;;;;;;16.70;41.85;101067.41;4993093;28;20050;-74
2022/11/06 10:28:18;;;;;;;4.07;1.83;;;;;;;16.63;42.56;101062.31;4988691;28;20050;-74
2022/11/06 10:31:02;;;;;;;3.30;1.75;;;;;;;16.58;41.75;101071.53;4991571;28;20413;-74
2022/11/06 10:34:24;;;;;;;2.85;1.58;;;;;;;16.77;42.07;101056.78;4992747;28;20386;-74
2022/11/06 10:36:55;;;;;;;3.45;1.63;;;;;;;16.87;41.13;101061.25;4977409;28;20046;-74
2022/11/06 10:39:31;;;;;;;3.38;1.73;;;;;;;16.81;40.33;101055.00;4992079;28;20408;-74
2022/11/06 10:42:12;;;;;;;3.28;1.75;;;;;;;16.96;40.51;101053.03;4992730;28;20047;-74
2022/11/06 10:44:54;;;;;;;4.40;1.70;;;;;;;17.02;39.46;101049.00;4990495;28;20042;-73
2022/11/06 10:47:26;;;;;;;4.50;1.52;;;;;;;17.03;41.20;101045.97;4988023;28;20062;-74
2022/11/06 10:49:58;;;;;;;2.85;1.45;;;;;;;16.89;39.63;101037.69;4993086;28;20587;-73
2022/11/06 10:52:47;;;;;;;2.58;1.95;;;;;;;17.15;40.71;101053.69;4995549;28;20410;-74
2022/11/06 10:55:38;;;;;;;5.45;1.90;;;;;;;17.31;40.83;101045.03;4991403;28;20054;-73
2022/11/06 10:58:18;;;;;;;4.40;1.30;;;;;;;17.38;40.26;101039.88;4987651;28;20523;-73
2022/11/06 11:00:51;;;;;;;3.58;1.70;;;;;;;17.28;41.23;101040.94;4988618;28;20100;-76
2022/11/06 11:03:43;;;;;;;3.92;1.45;;;;;;;17.50;40.11;101044.03;4991124;28;20038;-74
2022/11/06 11:06:12;;;;;;;3.50;1.95;;;;;;;17.42;40.19;101027.06;4989841;28;20050;-76
2022/11/06 11:08:41;;;;;;;4.45;1.65;;;;;;;17.19;40.00;101027.06;4990063;28;20069;-79
2022/11/06 11:11:14;;;;;;;2.72;1.48;;;;;;;17.46;42.07;101028.03;4992837;28;20061;-76
2022/11/06 11:13:59;;;;;;;2.45;1.70;;;;;;;17.37;40.49;101029.13;4958074;28;20499;-75
2022/11/06 11:16:41;;;;;;;2.72;1.77;;;;;;;17.50;40.74;101030.97;4987812;28;20077;-75
2022/11/06 11:19:26;;;;;;;3.10;1.48;;;;;;;17.59;41.04;101020.78;4991404;28;20061;-75
2022/11/06 11:22:00;;;;;;;3.00;1.90;;;;;;;17.57;42.05;101022.25;4996825;28;20509;-73
2022/11/06 11:24:28;;;;;;;2.97;1.07;;;;;;;17.51;40.45;101021.56;4993201;28;20046;-75
2022/11/06 11:27:03;;;;;;;2.95;2.00;;;;;;;17.65;41.43;101010.41;4994958;28;20041;-73
2022/11/06 11:29:40;;;;;;;2.75;1.48;;;;;;;17.63;40.96;101004.38;4988147;28;20401;-75
2022/11/06 11:32:14;;;;;;;3.50;2.00;;;;;;;17.78;41.12;101011.44;4989485;28;20046;-76
2022/11/06 11:34:54;;;;;;;3.67;1.70;;;;;;;17.88;40.48;101004.81;4992927;28;20050;-76
2022/11/06 11:37:28;;;;;;;2.33;1.67;;;;;;;17.86;40.43;101009.84;4989678;28;20517;-77
2022/11/06 11:40:35;;;;;;;2.10;1.35;;;;;;;17.89;41.80;101000.09;4998709;28;20059;-76
2022/11/06 11:43:18;;;;;;;2.00;1.27;;;;;;;17.97;40.01;101002.91;4996281;28;20445;-76
2022/11/06 11:46:04;;;;;;;2.88;1.80;;;;;;;17.92;40.82;101003.03;4988627;28;20047;-76
2022/11/06 11:48:42;;;;;;;4.00;2.00;;;;;;;18.08;40.04;100994.34;4994090;28;20038;-76
2022/11/06 11:51:43;;;;;;;2.35;1.38;;;;;;;18.03;40.32;101002.75;4994093;28;20062;-77
2022/11/06 11:54:11;;;;;;;3.92;1.75;;;;;;;18.09;37.81;100990.44;4990755;28;20053;-76
2022/11/06 11:56:54;;;;;;;1.42;1.33;;;;;;;18.12;39.04;100993.38;4991359;28;20050;-76
2022/11/06 11:59:41;;;;;;;2.58;1.85;;;;;;;18.11;39.45;100979.84;4992541;28;20046;-76
2022/11/06 12:02:20;;;;;;;2.50;1.90;;;;;;;18.12;39.72;100981.47;4991811;28;20054;-76
2022/11/06 12:05:02;;;;;;;2.05;1.48;;;;;;;18.19;39.73;100964.38;4990759;28;20050;-76
2022/11/06 12:07:33;;;;;;;2.08;1.60;;;;;;;18.34;39.25;100976.97;4991458;28;21210;-76
2022/11/06 12:10:15;;;;;;;3.90;1.60;;;;;;;18.36;39.61;100981.03;4987439;28;20053;-77
2022/11/06 12:12:48;;;;;;;2.45;1.48;;;;;;;18.32;38.40;100973.69;4989613;28;20058;-85
2022/11/06 12:15:19;;;;;;;2.92;1.67;;;;;;;18.33;38.30;100973.34;4987485;28;20050;-76